This is the latest recevied weather packets stored in our database for station/object 9W2YIE-13. If no packets are shown the sender has not sent any weather packets the latest 10 day(s).
| Time | Temp. | Humidity | Pressure | Rain* | Wind** | Luminosity | Snow |
|---|---|---|---|---|---|---|---|
| 1788035947 | 39.44° C | 40% | 1007 hPa | - | - | 0 W/m² | - |
| 1788035010 | 38.89° C | 41% | 1007 hPa | - | - | 0 W/m² | - |
| 1788034082 | 39.44° C | 39% | 1007 hPa | - | - | 0 W/m² | - |
| 1788033157 | 40° C | 39% | 1007 hPa | - | - | 0 W/m² | - |
| 1788032230 | 39.44° C | 40% | 1008 hPa | - | - | 0 W/m² | - |
| 1788031304 | 38.89° C | 41% | 1008 hPa | - | - | 0 W/m² | - |
| 1788030375 | 39.44° C | 40% | 1008 hPa | - | - | 0 W/m² | - |
| 1788029445 | 39.44° C | 40% | 1008 hPa | - | - | 0 W/m² | - |
| 1788028520 | 40.56° C | 38% | 1008 hPa | - | - | 0 W/m² | - |
| 1788028120 | 40° C | 39% | 1008 hPa | - | - | 0 W/m² | - |
| 1788027195 | 40° C | 39% | 1008 hPa | - | - | 0 W/m² | - |
| 1788026268 | 39.44° C | 40% | 1008 hPa | - | - | 0 W/m² | - |
| 1788025343 | 38.89° C | 41% | 1009 hPa | - | - | 0 W/m² | - |
| 1788024416 | 40.56° C | 39% | 1009 hPa | - | - | 0 W/m² | - |
| 1788023485 | 39.44° C | 40% | 1009 hPa | - | - | 0 W/m² | - |
| 1788022554 | 40° C | 40% | 1009 hPa | - | - | 0 W/m² | - |
| 1788021614 | 40.56° C | 39% | 1009 hPa | - | - | 0 W/m² | - |
| 1788020652 | 41.67° C | 36% | 1009 hPa | - | - | 0 W/m² | - |
| 1788019722 | 39.44° C | 40% | 1009 hPa | - | - | 0 W/m² | - |
| 1788018794 | 40° C | 39% | 1009 hPa | - | - | 0 W/m² | - |
| 1788017835 | 40° C | 39% | 1009 hPa | - | - | 0 W/m² | - |
| 1788016894 | 40.56° C | 39% | 1008 hPa | - | - | 0 W/m² | - |
| 1788015964 | 40° C | 39% | 1009 hPa | - | - | 0 W/m² | - |
| 1788015028 | 41.67° C | 36% | 1008 hPa | - | - | 0 W/m² | - |
| 1788014072 | 42.78° C | 35% | 1008 hPa | - | - | 0 W/m² | - |
* Rain since midnight (hover to see other rain measurements)
** Current wind speed in m/s (hover to see current wind gust speed)